Terminal Aerodrome Forecast
Issued by NWS North Platte, NE

Home | Current Version | Previous Version | Text Only | Print | Product List | Glossary Off
Versions: 1 2 3 4 5 6 7 8 9 10 11 12 13 14 15 16

837
FTUS43 KLBF 230544
TAFVTN
TAF
KVTN 230544Z 2306/2406 26008KT P6SM BKN120
     FM230800 29009KT P6SM SCT120
     FM231300 31017G24KT P6SM FEW150
     FM231600 31024G34KT P6SM FEW150
     FM240000 33015G22KT P6SM FEW250=

USA.gov is the U.S. government's official web portal to all federal, state and local government web resources and services.